Village of Oakview, Missouri
Current Conditions -  °F | °C
As of 3:24 AM on Sunday 23 Nov 2014 (Local Time) from KMKC Reporting Station
Overcast Overcast  
Wind Chill: 54°   Ceiling: 1900
Heat Index: 54°   Visibility: 10mi
Dew Point: 51°   Wind: 7mph
Humidity: 90%   Direction: 160°SSE
Pressure: 29.59"   Gusts: NA
Location:  39.213°N, 94.5752°W
Report Text: KMKC 230924Z 16006KT 10SM SCT013 OVC019 12/11 A2959 RMK AO2 RAE24 P0000 T01220106
Loading
Personal Weather Stations






























Interactive Weather Map New forecast layout! Learn more

10-Day Weather Forecast

Advertisements
Track Severe Weather on mobile